Reedville, Arkansas
Current Conditions -  °F | °C
As of 9:53 AM on Friday 28 Nov 2014 (Local Time) from KLLQ Reporting Station
Clear Clear  
Wind Chill: 40°   Ceiling: Unl
Heat Index: 45°   Visibility: 10mi
Dew Point: 33°   Wind: 10mph
Humidity: 63%   Direction: 150°SSE
Pressure: 30.38"   Gusts: NA
Location:  33.9283°N, 91.468°W
Report Text: KLLQ 281553Z AUTO 15009KT 10SM CLR 07/01 A3038 RMK AO2 SLP289 T00720006
Loading
Personal Weather Stations






























Interactive Weather Map New forecast layout! Learn more

10-Day Weather Forecast

Advertisements
Track Severe Weather on mobile